Time;durP1;ratioP1;P1;durP2;ratioP2;P2;SDS_P1;SDS_P2;PMS_P1;PMS_P2;Temp;Humidity;BMP_temperature;BMP_pressure;BME280_temperature;BME280_humidity;BME280_pressure;Samples;Min_cycle;Max_cycle;Signal;HPM_P1;HPM_P2
2022/03/18 00:02:21;;;;;;;411.52;125.70;;;;;;;-0.07;100.00;100295.25;6179332;23;20403;-67
2022/03/18 00:04:47;;;;;;;418.13;127.82;;;;;;;0.07;100.00;100320.28;6176439;23;20013;-65
2022/03/18 00:07:16;;;;;;;410.77;129.02;;;;;;;-0.17;100.00;100282.97;6149889;23;19997;-65
2022/03/18 00:09:42;;;;;;;409.88;124.78;;;;;;;-0.04;100.00;100314.69;6178175;23;20479;-65
2022/03/18 00:12:11;;;;;;;416.30;130.13;;;;;;;-0.06;100.00;100301.19;6177867;23;20016;-64
2022/03/18 00:14:40;;;;;;;415.38;125.95;;;;;;;-0.22;100.00;100284.44;6174897;23;20013;-65
2022/03/18 00:17:09;;;;;;;410.55;126.25;;;;;;;-0.04;100.00;100324.78;6176082;23;20028;-66
2022/03/18 00:19:36;;;;;;;413.38;127.75;;;;;;;-0.10;100.00;100327.03;6178114;23;20009;-65
2022/03/18 00:22:02;;;;;;;413.83;133.60;;;;;;;-0.06;100.00;100319.69;6174262;22;20429;-66
2022/03/18 00:24:28;;;;;;;416.48;131.88;;;;;;;-0.10;100.00;100324.50;6174450;23;20146;-64
2022/03/18 00:26:54;;;;;;;411.73;126.10;;;;;;;-0.10;100.00;100327.03;6176521;23;20013;-64
2022/03/18 00:29:20;;;;;;;411.35;126.63;;;;;;;-0.19;100.00;100324.91;6178316;23;20005;-64
2022/03/18 00:31:46;;;;;;;413.67;126.73;;;;;;;-0.16;100.00;100331.72;6174743;23;20467;-66
2022/03/18 00:34:11;;;;;;;414.90;125.27;;;;;;;-0.17;100.00;100328.34;6177911;23;20450;-67
2022/03/18 00:36:37;;;;;;;407.60;124.47;;;;;;;-0.09;100.00;100327.09;6174109;23;20017;-64
2022/03/18 00:39:03;;;;;;;418.02;130.38;;;;;;;-0.11;100.00;100313.53;6174369;23;20005;-64
2022/03/18 00:41:29;;;;;;;411.45;124.05;;;;;;;-0.20;100.00;100308.03;6176543;23;20036;-64
2022/03/18 00:43:55;;;;;;;413.47;129.73;;;;;;;-0.25;100.00;100306.94;6177007;23;20005;-66
2022/03/18 00:46:22;;;;;;;407.60;124.30;;;;;;;-0.28;100.00;100308.44;6174338;23;20070;-64
2022/03/18 00:54:16;;;;;;;408.75;125.90;;;;;;;-0.40;100.00;100308.69;6173029;23;20504;-66
2022/03/18 00:56:42;;;;;;;409.03;126.10;;;;;;;-0.32;100.00;100329.22;6173618;23;20009;-65
2022/03/18 00:59:07;;;;;;;415.30;126.63;;;;;;;-0.44;100.00;100324.44;6176839;23;20327;-64
2022/03/18 01:01:33;;;;;;;409.53;125.87;;;;;;;-0.40;100.00;100328.84;6177403;23;20439;-65
2022/03/18 01:03:58;;;;;;;406.43;124.83;;;;;;;-0.35;100.00;100337.50;6175797;23;20001;-64
2022/03/18 01:06:24;;;;;;;408.90;126.47;;;;;;;-0.35;100.00;100335.00;6177459;23;20040;-66
2022/03/18 01:08:49;;;;;;;412.57;129.23;;;;;;;-0.51;100.00;100317.38;6173063;23;20024;-64
2022/03/18 01:11:15;;;;;;;410.03;123.47;;;;;;;-0.44;100.00;100329.47;6148392;23;20150;-67
2022/03/18 01:13:40;;;;;;;409.50;122.37;;;;;;;-0.42;100.00;100322.00;6177526;23;20005;-65
2022/03/18 01:16:06;;;;;;;410.77;131.30;;;;;;;-0.41;100.00;100327.09;6176080;23;20009;-65
2022/03/18 01:18:31;;;;;;;412.67;131.87;;;;;;;-0.51;100.00;100309.81;6172220;23;20012;-65
2022/03/18 01:20:57;;;;;;;408.17;128.17;;;;;;;-0.52;100.00;100323.19;6175493;23;20021;-65
2022/03/18 01:23:23;;;;;;;404.13;124.17;;;;;;;-0.58;100.00;100316.16;6178222;23;20017;-64
2022/03/18 01:25:48;;;;;;;408.73;130.37;;;;;;;-0.48;100.00;100340.19;6173940;23;20005;-64
2022/03/18 01:28:14;;;;;;;415.67;131.03;;;;;;;-0.50;100.00;100345.13;6174614;23;20271;-66
2022/03/18 01:30:40;;;;;;;406.33;126.67;;;;;;;-0.63;100.00;100331.81;6175771;23;20028;-65
2022/03/18 01:33:05;;;;;;;403.47;126.27;;;;;;;-0.68;100.00;100313.09;6178162;23;20059;-64
2022/03/18 01:35:31;;;;;;;408.83;130.80;;;;;;;-0.51;100.00;100345.06;6172677;23;20094;-63
2022/03/18 01:37:56;;;;;;;407.10;131.33;;;;;;;-0.53;100.00;100344.97;6173679;23;20013;-64
2022/03/18 01:40:22;;;;;;;404.67;124.57;;;;;;;-0.51;100.00;100345.06;6176963;23;20005;-64
2022/03/18 01:42:48;;;;;;;408.47;133.03;;;;;;;-0.54;100.00;100344.88;6175269;23;20021;-66
2022/03/18 01:45:13;;;;;;;409.80;126.67;;;;;;;-0.58;100.00;100348.03;6173919;23;20079;-64
2022/03/18 01:47:45;;;;;;;403.10;123.27;;;;;;;-0.62;100.00;100331.91;6174105;23;20231;-65
2022/03/18 01:50:12;;;;;;;406.17;125.18;;;;;;;-0.55;100.00;100358.25;6176747;22;20013;-64
2022/03/18 01:52:38;;;;;;;398.50;123.47;;;;;;;-0.59;100.00;100352.19;6175424;23;20020;-66
2022/03/18 01:55:04;;;;;;;405.08;125.32;;;;;;;-0.77;100.00;100331.09;6177063;23;20431;-66
2022/03/18 01:57:29;;;;;;;409.98;132.52;;;;;;;-0.63;100.00;100359.50;6173737;22;20007;-65
2022/03/18 01:59:55;;;;;;;404.53;125.93;;;;;;;-0.67;100.00;100353.44;6172968;23;20432;-65
2022/03/18 02:02:21;;;;;;;397.73;122.22;;;;;;;-0.79;100.00;100335.19;6176088;23;20466;-65
2022/03/18 02:04:47;;;;;;;397.27;122.00;;;;;;;-0.82;100.00;100335.03;6181920;23;20013;-65
2022/03/18 02:07:13;;;;;;;407.05;126.85;;;;;;;-0.78;100.00;100347.00;6180534;23;20020;-65
2022/03/18 02:09:40;;;;;;;397.63;122.47;;;;;;;-0.75;100.00;100361.38;6176036;23;20041;-64
2022/03/18 02:12:07;;;;;;;404.92;122.45;;;;;;;-0.87;100.00;100346.50;6177050;23;20032;-64
2022/03/18 02:14:50;;;;;;;402.55;123.50;;;;;;;-0.64;100.00;100370.38;6174608;23;20009;-65
2022/03/18 02:17:18;;;;;;;400.00;127.35;;;;;;;-0.78;100.00;100348.63;6172963;23;20024;-65
2022/03/18 02:19:45;;;;;;;404.90;129.48;;;;;;;-0.68;100.00;100373.53;6173032;23;20048;-64
2022/03/18 02:22:16;;;;;;;400.92;125.43;;;;;;;-0.68;100.00;100376.88;6174161;23;20059;-65
2022/03/18 02:24:44;;;;;;;403.30;127.40;;;;;;;-0.68;100.00;100381.09;6173321;23;20084;-65
2022/03/18 02:27:10;;;;;;;400.60;123.75;;;;;;;-0.77;100.00;100362.97;6174430;23;20711;-65
2022/03/18 02:29:36;;;;;;;402.27;123.47;;;;;;;-0.74;100.00;100363.13;6175766;23;20362;-65
2022/03/18 02:32:04;;;;;;;405.33;128.70;;;;;;;-0.60;100.00;100375.69;6173500;23;20032;-64
2022/03/18 02:34:29;;;;;;;402.75;128.38;;;;;;;-0.67;100.00;100376.09;6172402;23;20220;-64
2022/03/18 02:36:55;;;;;;;402.63;125.57;;;;;;;-0.82;100.00;100347.63;6175654;23;20016;-64
2022/03/18 02:39:20;;;;;;;404.13;126.60;;;;;;;-0.73;100.00;100362.34;6176419;23;20020;-64
2022/03/18 02:41:47;;;;;;;401.00;123.50;;;;;;;-0.61;100.00;100385.66;6172595;23;20028;-64
2022/03/18 02:44:13;;;;;;;401.77;123.53;;;;;;;-0.73;100.00;100369.91;6175868;23;20012;-64
2022/03/18 02:46:38;;;;;;;404.27;129.97;;;;;;;-0.60;100.00;100392.44;6175295;23;20031;-66
2022/03/18 02:49:05;;;;;;;402.90;128.63;;;;;;;-0.59;100.00;100395.00;6171557;23;20505;-63
2022/03/18 02:51:31;;;;;;;400.52;122.90;;;;;;;-0.55;100.00;100401.06;6176292;23;20017;-64
2022/03/18 02:53:57;;;;;;;404.33;129.33;;;;;;;-0.88;100.00;100346.41;6175172;23;20071;-64
2022/03/18 02:56:23;;;;;;;400.15;120.50;;;;;;;-0.61;100.00;100391.56;6172938;23;20032;-63
2022/03/18 02:58:49;;;;;;;403.25;125.75;;;;;;;-0.66;100.00;100400.50;6176482;23;20013;-64
2022/03/18 03:01:15;;;;;;;399.27;124.15;;;;;;;-0.65;100.00;100397.22;6175072;23;20047;-65
2022/03/18 03:03:41;;;;;;;400.90;125.80;;;;;;;-0.67;100.00;100408.84;6175552;23;20032;-65
2022/03/18 03:08:50;;;;;;;399.55;124.95;;;;;;;-0.80;100.00;100406.44;6172982;23;20100;-64
2022/03/18 03:11:16;;;;;;;408.17;125.50;;;;;;;-0.85;100.00;100401.97;6174983;23;20046;-64
2022/03/18 03:13:42;;;;;;;405.00;127.75;;;;;;;-0.83;100.00;100416.38;6176152;23;20372;-64
2022/03/18 03:16:08;;;;;;;404.03;124.37;;;;;;;-0.92;100.00;100404.13;6148906;22;20092;-63
2022/03/18 03:18:34;;;;;;;401.27;122.77;;;;;;;-0.83;100.00;100418.00;6176178;23;20756;-60
2022/03/18 03:20:59;;;;;;;407.00;124.60;;;;;;;-0.79;100.00;100424.94;6173219;23;20005;-66
2022/03/18 03:23:25;;;;;;;403.07;127.33;;;;;;;-0.92;100.00;100411.69;6173093;23;20017;-62
2022/03/18 03:25:52;;;;;;;408.73;135.15;;;;;;;-0.87;100.00;100429.56;6173097;23;20017;-63
2022/03/18 03:28:18;;;;;;;400.67;126.70;;;;;;;-0.87;100.00;100434.59;6172404;23;20017;-64
2022/03/18 03:30:46;;;;;;;403.23;130.50;;;;;;;-0.81;100.00;100449.19;6172686;23;20017;-64
2022/03/18 03:33:12;;;;;;;407.55;128.75;;;;;;;-0.82;100.00;100447.44;6172977;23;20108;-63
2022/03/18 03:35:38;;;;;;;402.37;128.77;;;;;;;-0.95;100.00;100435.81;6172633;23;20011;-62
2022/03/18 03:38:05;;;;;;;406.97;127.93;;;;;;;-0.81;100.00;100449.19;6172421;23;20021;-63
2022/03/18 03:40:30;;;;;;;404.73;129.98;;;;;;;-0.80;100.00;100459.31;6172994;23;20023;-62
2022/03/18 03:42:56;;;;;;;406.67;128.53;;;;;;;-0.76;100.00;100467.91;6148718;22;20025;-63
2022/03/18 03:45:21;;;;;;;403.60;131.13;;;;;;;-0.66;100.00;100466.00;6173628;23;20024;-63
2022/03/18 03:47:47;;;;;;;406.33;131.27;;;;;;;-0.90;100.00;100439.47;6173749;23;20365;-63
2022/03/18 03:50:13;;;;;;;399.60;126.87;;;;;;;-0.78;100.00;100464.44;6174142;22;20009;-63
2022/03/18 03:52:39;;;;;;;398.43;124.20;;;;;;;-0.76;100.00;100478.84;6147632;22;20040;-66
2022/03/18 03:55:06;;;;;;;402.60;130.35;;;;;;;-0.80;100.00;100474.41;6171873;23;20631;-65
2022/03/18 03:57:31;;;;;;;404.75;130.35;;;;;;;-0.83;100.00;100473.38;6173440;23;20013;-64
2022/03/18 03:59:58;;;;;;;400.30;125.00;;;;;;;-0.72;100.00;100480.75;6173572;23;20281;-62
2022/03/18 04:02:24;;;;;;;408.35;134.38;;;;;;;-0.69;100.00;100487.63;6173252;23;20101;-62
2022/03/18 04:04:49;;;;;;;405.77;130.47;;;;;;;-0.80;100.00;100466.00;6172239;23;20399;-63
2022/03/18 04:07:15;;;;;;;407.80;132.73;;;;;;;-0.69;100.00;100482.59;6174504;23;20024;-62
2022/03/18 04:09:42;;;;;;;402.95;127.25;;;;;;;-0.67;100.00;100486.91;6174854;23;20032;-63
2022/03/18 04:12:08;;;;;;;405.17;129.50;;;;;;;-0.71;100.00;100476.59;6172383;23;20088;-63
2022/03/18 04:14:33;;;;;;;414.83;130.98;;;;;;;-0.64;100.00;100497.19;6173122;23;20024;-62
2022/03/18 04:16:59;;;;;;;401.00;124.63;;;;;;;-0.53;100.00;100500.25;6175049;23;20012;-64
2022/03/18 04:19:25;;;;;;;399.67;124.87;;;;;;;-0.51;100.00;100513.81;6175551;23;20009;-62
2022/03/18 04:21:51;;;;;;;405.08;131.15;;;;;;;-0.78;100.00;100470.34;6175086;22;20013;-62
2022/03/18 04:24:16;;;;;;;401.23;129.00;;;;;;;-0.80;100.00;100476.06;6173848;23;20698;-67
2022/03/18 04:26:42;;;;;;;404.80;131.13;;;;;;;-0.60;100.00;100515.84;6174278;23;20009;-61
2022/03/18 04:29:12;;;;;;;395.03;122.30;;;;;;;-0.54;100.00;100517.03;6175444;23;20077;-59
2022/03/18 04:31:38;;;;;;;404.70;128.43;;;;;;;-0.56;100.00;100513.56;6174908;23;20580;-59
2022/03/18 04:34:04;;;;;;;403.77;125.47;;;;;;;-0.67;100.00;100501.16;6173895;23;20102;-60
2022/03/18 04:36:29;;;;;;;410.37;132.60;;;;;;;-0.62;100.00;100514.88;6174600;23;20041;-59
2022/03/18 04:38:55;;;;;;;405.27;125.30;;;;;;;-0.62;100.00;100524.94;6173967;23;20009;-59
2022/03/18 04:41:20;;;;;;;400.93;123.83;;;;;;;-0.65;100.00;100525.66;6175348;23;20736;-59
2022/03/18 04:43:46;;;;;;;411.97;126.10;;;;;;;-0.76;100.00;100505.66;6173446;23;20029;-59
2022/03/18 04:46:11;;;;;;;407.30;127.07;;;;;;;-0.78;100.00;100508.13;6173171;23;20009;-60
2022/03/18 04:48:38;;;;;;;408.90;124.80;;;;;;;-0.70;100.00;100534.59;6174270;23;20443;-58
2022/03/18 04:51:04;;;;;;;402.63;125.07;;;;;;;-0.68;100.00;100538.06;6146634;23;20025;-61
2022/03/18 04:53:29;;;;;;;410.23;130.95;;;;;;;-0.77;100.00;100526.63;6170777;23;20715;-59
2022/03/18 04:55:55;;;;;;;402.80;130.10;;;;;;;-0.69;100.00;100550.56;6171928;23;20005;-60
2022/03/18 04:58:20;;;;;;;401.93;126.83;;;;;;;-0.71;100.00;100549.59;6172070;23;20013;-60
2022/03/18 05:00:45;;;;;;;401.10;127.93;;;;;;;-0.83;100.00;100546.41;6173705;23;20009;-58
2022/03/18 05:03:11;;;;;;;400.60;127.60;;;;;;;-0.85;100.00;100541.31;6173949;23;20017;-59
2022/03/18 05:05:37;;;;;;;404.37;133.73;;;;;;;-0.71;100.00;100562.19;6174053;23;20063;-59
2022/03/18 05:08:03;;;;;;;411.00;132.68;;;;;;;-0.71;100.00;100573.13;6173640;23;20005;-59
2022/03/18 05:10:30;;;;;;;407.08;131.48;;;;;;;-0.69;100.00;100573.25;6173967;23;20084;-59
2022/03/18 05:12:55;;;;;;;402.23;127.65;;;;;;;-0.66;100.00;100578.44;6173356;23;20020;-64
2022/03/18 05:15:21;;;;;;;407.03;133.33;;;;;;;-0.66;100.00;100580.97;6175276;23;20009;-59
2022/03/18 05:17:54;;;;;;;405.77;127.45;;;;;;;-0.78;100.00;100555.97;6175666;23;20001;-59
2022/03/18 05:20:20;;;;;;;406.33;130.10;;;;;;;-0.63;100.00;100576.09;6173336;23;20021;-58
2022/03/18 05:22:45;;;;;;;403.27;128.10;;;;;;;-0.56;100.00;100575.66;6172752;23;20089;-59
2022/03/18 05:25:12;;;;;;;400.57;126.17;;;;;;;-0.54;100.00;100572.44;6174910;23;20019;-59
2022/03/18 05:27:43;;;;;;;405.85;128.73;;;;;;;-0.59;100.00;100556.19;6176571;23;20089;-59
2022/03/18 05:30:14;;;;;;;403.23;127.15;;;;;;;-0.54;100.00;100556.47;6176401;23;20082;-59
2022/03/18 05:32:42;;;;;;;399.48;125.53;;;;;;;-0.37;100.00;100577.53;6175506;23;20532;-59
2022/03/18 05:35:09;;;;;;;411.42;131.10;;;;;;;-0.26;100.00;100581.53;6173448;23;20040;-58
2022/03/18 05:37:34;;;;;;;408.95;132.98;;;;;;;-0.23;100.00;100585.09;6173248;23;20092;-59
2022/03/18 05:39:59;;;;;;;410.77;134.77;;;;;;;-0.21;100.00;100585.19;6173185;23;20013;-59
2022/03/18 05:42:26;;;;;;;407.03;132.33;;;;;;;-0.22;100.00;100594.41;6173593;23;20028;-58
2022/03/18 05:44:52;;;;;;;406.40;131.30;;;;;;;-0.19;100.00;100594.56;6173251;23;20080;-59
2022/03/18 05:47:17;;;;;;;415.63;136.27;;;;;;;-0.24;100.00;100577.44;6173553;23;20327;-59
2022/03/18 05:49:44;;;;;;;406.63;131.20;;;;;;;-0.08;100.00;100583.41;6174495;23;20343;-59
2022/03/18 05:52:10;;;;;;;404.70;130.57;;;;;;;-0.04;100.00;100607.97;6176875;22;20337;-59
2022/03/18 05:54:35;;;;;;;405.27;129.50;;;;;;;0.00;100.00;100607.38;6175873;23;20041;-59
2022/03/18 05:57:02;;;;;;;404.10;134.77;;;;;;;0.12;100.00;100616.41;6175453;23;20013;-58
2022/03/18 05:59:28;;;;;;;404.15;129.55;;;;;;;0.04;100.00;100602.50;6176015;23;20130;-59
2022/03/18 06:01:56;;;;;;;410.10;130.15;;;;;;;0.20;100.00;100613.50;6174984;23;20009;-60
2022/03/18 06:04:22;;;;;;;404.58;130.30;;;;;;;0.27;100.00;100622.25;6176143;23;20082;-60
2022/03/18 06:06:48;;;;;;;409.15;133.98;;;;;;;0.36;100.00;100625.28;6175196;23;20092;-63
2022/03/18 06:12:02;;;;;;;405.48;127.55;;;;;;;0.47;100.00;100629.22;6176051;23;20094;-60
2022/03/18 06:14:29;;;;;;;408.73;142.35;;;;;;;0.60;100.00;100631.59;6176201;23;20086;-60
2022/03/18 06:16:57;;;;;;;406.70;134.15;;;;;;;0.53;100.00;100614.41;6176361;23;20285;-60
2022/03/18 06:19:24;;;;;;;406.55;137.57;;;;;;;0.65;100.00;100620.09;6178180;23;20004;-59
2022/03/18 06:21:49;;;;;;;412.98;136.40;;;;;;;0.83;100.00;100636.22;6174056;23;20069;-59
2022/03/18 06:24:17;;;;;;;418.00;144.03;;;;;;;0.86;100.00;100625.38;6174959;23;20017;-60
2022/03/18 06:26:43;;;;;;;417.60;143.30;;;;;;;1.02;100.00;100644.75;6173518;23;20013;-59
2022/03/18 06:29:09;;;;;;;418.33;144.93;;;;;;;1.11;100.00;100647.69;6174859;23;20016;-59
2022/03/18 06:31:36;;;;;;;422.17;143.60;;;;;;;1.13;100.00;100643.63;6176326;23;20020;-61
2022/03/18 06:34:02;;;;;;;415.08;144.93;;;;;;;1.18;100.00;100643.06;6174790;23;20035;-58
2022/03/18 06:36:28;;;;;;;418.23;144.80;;;;;;;1.27;100.00;100657.81;6174402;23;20084;-59
2022/03/18 06:38:54;;;;;;;414.03;142.37;;;;;;;1.36;100.00;100650.66;6173729;23;20108;-59
2022/03/18 06:41:19;;;;;;;419.42;145.10;;;;;;;1.55;100.00;100658.38;6175619;23;20017;-59
2022/03/18 06:43:49;;;;;;;420.57;140.93;;;;;;;1.69;100.00;100667.53;6176491;23;20078;-59
2022/03/18 06:46:15;;;;;;;416.73;141.75;;;;;;;1.79;100.00;100668.81;6176182;23;20427;-60
2022/03/18 06:48:41;;;;;;;419.50;147.55;;;;;;;1.83;100.00;100660.59;6175389;23;20087;-58
2022/03/18 06:51:07;;;;;;;414.00;139.23;;;;;;;1.98;100.00;100673.97;6175451;22;20423;-60
2022/03/18 06:53:32;;;;;;;415.60;142.33;;;;;;;2.09;100.00;100671.94;6174713;23;20012;-60
2022/03/18 06:55:58;;;;;;;417.37;148.43;;;;;;;2.19;100.00;100649.69;6174503;23;20099;-59
2022/03/18 06:58:24;;;;;;;418.77;148.47;;;;;;;2.50;100.00;100669.69;6173959;23;20419;-59
2022/03/18 07:00:49;;;;;;;418.53;146.93;;;;;;;2.56;100.00;100653.91;6173654;23;20009;-58
2022/03/18 07:03:14;;;;;;;421.57;151.40;;;;;;;2.51;100.00;100665.47;6176685;23;20021;-58
2022/03/18 07:05:40;;;;;;;422.97;154.07;;;;;;;2.70;100.00;100679.06;6174966;23;20081;-60
2022/03/18 07:08:05;;;;;;;428.23;157.47;;;;;;;2.72;100.00;100666.44;6169236;23;20035;-60
2022/03/18 07:10:31;;;;;;;426.60;156.57;;;;;;;2.85;100.00;100681.41;6168390;23;20492;-60
2022/03/18 07:12:57;;;;;;;426.63;157.77;;;;;;;2.96;100.00;100686.94;6173258;23;20100;-60
2022/03/18 07:15:22;;;;;;;429.67;160.27;;;;;;;3.04;100.00;100672.94;6172542;23;20457;-62
2022/03/18 07:18:00;;;;;;;428.60;159.63;;;;;;;3.24;100.00;100684.81;6173964;23;20013;-60
2022/03/18 07:20:30;;;;;;;430.58;159.50;;;;;;;3.50;100.00;100688.44;6174280;23;20020;-59
2022/03/18 07:23:06;;;;;;;426.08;154.75;;;;;;;3.56;100.00;100691.25;6177646;23;20009;-59
2022/03/18 07:25:32;;;;;;;428.67;166.07;;;;;;;3.74;100.00;100694.53;6175053;23;20058;-59
2022/03/18 07:27:58;;;;;;;433.08;165.57;;;;;;;3.79;100.00;100674.44;6174008;23;20009;-59
2022/03/18 07:30:23;;;;;;;435.60;167.10;;;;;;;3.80;100.00;100683.78;6175021;23;20721;-59
2022/03/18 07:32:48;;;;;;;434.67;169.77;;;;;;;4.10;100.00;100700.25;6177336;23;20005;-58
2022/03/18 07:35:14;;;;;;;430.20;166.53;;;;;;;4.19;100.00;100698.09;6176767;23;20047;-60
2022/03/18 07:37:41;;;;;;;437.60;174.90;;;;;;;4.36;100.00;100704.69;6174376;23;20005;-61
2022/03/18 07:40:08;;;;;;;444.55;179.05;;;;;;;4.50;100.00;100705.19;6176704;23;20389;-61
2022/03/18 07:42:42;;;;;;;442.88;174.25;;;;;;;4.67;100.00;100711.78;6175664;23;20025;-60
2022/03/18 07:45:12;;;;;;;436.92;174.40;;;;;;;4.69;100.00;100699.16;6178615;23;20447;-62
2022/03/18 07:47:38;;;;;;;439.95;185.20;;;;;;;4.94;100.00;100714.50;6177085;23;20005;-61
2022/03/18 07:50:05;;;;;;;439.05;175.60;;;;;;;5.19;100.00;100713.72;6178419;22;20051;-62
2022/03/18 07:52:31;;;;;;;438.88;179.43;;;;;;;5.07;100.00;100699.75;6177503;23;20013;-60
2022/03/18 07:54:56;;;;;;;442.90;199.53;;;;;;;5.00;100.00;100702.03;6176135;23;20005;-61
2022/03/18 07:57:22;;;;;;;439.77;181.90;;;;;;;5.27;100.00;100722.47;6173602;23;20009;-61
2022/03/18 07:59:47;;;;;;;446.00;184.77;;;;;;;5.31;100.00;100711.59;6173908;23;20005;-60
2022/03/18 08:02:12;;;;;;;438.73;181.00;;;;;;;5.56;100.00;100729.44;6177699;23;20470;-60
2022/03/18 08:04:38;;;;;;;447.40;197.67;;;;;;;5.66;100.00;100728.97;6177124;23;20004;-60
2022/03/18 08:07:03;;;;;;;443.47;196.33;;;;;;;5.38;100.00;100705.94;6171269;23;20039;-60
2022/03/18 08:09:29;;;;;;;441.43;189.17;;;;;;;5.29;100.00;100725.97;6174381;23;20432;-60
2022/03/18 08:11:55;;;;;;;441.07;190.37;;;;;;;5.56;100.00;100724.34;6177262;23;20009;-60
2022/03/18 08:14:21;;;;;;;449.00;198.00;;;;;;;5.69;100.00;100720.56;6174639;23;20009;-60
2022/03/18 08:16:47;;;;;;;448.42;202.32;;;;;;;5.90;100.00;100718.75;6174299;23;20019;-59
2022/03/18 08:19:13;;;;;;;441.70;199.57;;;;;;;5.99;100.00;100724.16;6175927;23;20230;-60
2022/03/18 08:21:38;;;;;;;447.37;206.13;;;;;;;5.94;100.00;100744.38;6177277;23;20017;-60
2022/03/18 08:24:05;;;;;;;446.97;207.30;;;;;;;6.21;100.00;100741.88;6173134;23;20013;-60
2022/03/18 08:26:33;;;;;;;440.13;198.25;;;;;;;6.16;100.00;100722.16;6173889;23;20020;-60
2022/03/18 08:28:59;;;;;;;444.90;204.05;;;;;;;6.35;100.00;100739.78;6176231;23;20020;-61
2022/03/18 08:31:26;;;;;;;451.27;213.27;;;;;;;6.56;100.00;100726.84;6176617;23;20013;-60
2022/03/18 08:33:51;;;;;;;454.38;211.88;;;;;;;6.74;100.00;100743.56;6173674;23;20009;-61
2022/03/18 08:36:17;;;;;;;448.93;210.73;;;;;;;6.99;100.00;100752.81;6174790;23;20514;-61
2022/03/18 08:38:42;;;;;;;442.67;197.47;;;;;;;7.10;100.00;100755.66;6176993;23;20009;-60
2022/03/18 08:41:07;;;;;;;451.87;212.10;;;;;;;7.14;100.00;100752.38;6174414;23;20372;-60
2022/03/18 08:43:33;;;;;;;458.40;234.37;;;;;;;7.21;100.00;100755.13;6174057;23;20016;-60
2022/03/18 08:45:58;;;;;;;453.30;233.93;;;;;;;7.15;100.00;100744.78;6176213;23;20020;-60
2022/03/18 08:48:23;;;;;;;451.07;219.73;;;;;;;7.42;100.00;100765.09;6177726;23;20005;-60
2022/03/18 08:50:49;;;;;;;455.00;229.77;;;;;;;7.27;100.00;100755.31;6174013;23;20401;-61
2022/03/18 08:53:14;;;;;;;454.67;234.27;;;;;;;7.38;100.00;100763.28;6173078;23;20062;-61
2022/03/18 08:55:40;;;;;;;455.67;232.00;;;;;;;7.36;100.00;100752.16;6176272;23;20503;-61
2022/03/18 08:58:07;;;;;;;458.77;241.05;;;;;;;7.52;100.00;100758.53;6176236;23;20013;-61
2022/03/18 09:00:33;;;;;;;457.90;241.03;;;;;;;7.72;100.00;100775.28;6148987;23;20031;-60
2022/03/18 09:02:58;;;;;;;455.17;237.50;;;;;;;7.85;100.00;100761.16;6179329;23;20224;-60
2022/03/18 09:05:23;;;;;;;468.50;265.73;;;;;;;8.00;100.00;100776.84;6169532;23;20081;-61
2022/03/18 09:07:49;;;;;;;461.23;248.23;;;;;;;8.03;100.00;100769.25;6169122;23;20009;-61
2022/03/18 09:10:14;;;;;;;460.67;248.43;;;;;;;8.01;100.00;100776.91;6175689;23;20421;-60
2022/03/18 09:12:45;;;;;;;461.90;259.00;;;;;;;7.98;100.00;100784.47;6176910;23;20153;-59
2022/03/18 09:15:10;;;;;;;460.43;251.70;;;;;;;8.06;100.00;100782.97;6172968;23;20427;-59
2022/03/18 09:17:36;;;;;;;462.70;260.17;;;;;;;8.22;100.00;100792.78;6174347;23;20274;-60
2022/03/18 09:20:01;;;;;;;459.03;257.73;;;;;;;8.20;100.00;100788.44;6175109;22;20013;-60
2022/03/18 09:22:27;;;;;;;462.63;264.87;;;;;;;8.15;100.00;100778.09;6175865;23;20005;-59
2022/03/18 09:24:52;;;;;;;462.40;266.53;;;;;;;8.37;100.00;100781.22;6173355;23;20037;-59
2022/03/18 09:27:17;;;;;;;465.80;261.07;;;;;;;8.57;100.00;100788.53;6173666;23;20013;-62
2022/03/18 09:29:43;;;;;;;467.37;271.83;;;;;;;8.57;100.00;100772.34;6173602;23;20108;-59
2022/03/18 09:32:09;;;;;;;460.47;266.40;;;;;;;8.53;100.00;100791.00;6174822;23;20447;-60
2022/03/18 09:34:35;;;;;;;460.03;261.13;;;;;;;8.71;100.00;100791.41;6176241;23;20012;-59
2022/03/18 09:37:02;;;;;;;462.67;273.37;;;;;;;8.59;100.00;100783.47;6177122;23;20503;-60
2022/03/18 09:39:27;;;;;;;467.63;274.20;;;;;;;8.77;100.00;100780.47;6174218;23;20005;-60
2022/03/18 09:41:54;;;;;;;468.97;286.43;;;;;;;8.75;100.00;100800.03;6173438;23;20259;-59
2022/03/18 09:44:20;;;;;;;460.97;271.70;;;;;;;8.88;100.00;100795.22;6173941;23;20005;-61
2022/03/18 09:46:47;;;;;;;470.07;286.90;;;;;;;8.80;100.00;100777.97;6173713;23;20277;-60
2022/03/18 09:49:14;;;;;;;464.57;276.83;;;;;;;8.97;100.00;100805.66;6172766;23;20653;-60
2022/03/18 09:51:42;;;;;;;461.90;278.67;;;;;;;9.04;100.00;100797.28;6174221;22;20634;-60
2022/03/18 09:54:09;;;;;;;467.03;286.37;;;;;;;9.18;100.00;100803.56;6173214;23;20232;-60
2022/03/18 09:56:34;;;;;;;467.30;288.90;;;;;;;9.49;100.00;100810.22;6173028;23;20217;-60
2022/03/18 09:59:00;;;;;;;478.30;301.67;;;;;;;9.66;98.59;100807.97;6172880;23;20249;-60
2022/03/18 10:01:25;;;;;;;467.03;293.53;;;;;;;9.33;97.96;100794.50;6173749;23;20557;-60
2022/03/18 10:03:51;;;;;;;471.87;296.73;;;;;;;9.65;97.64;100811.38;6172793;23;20005;-61
2022/03/18 10:06:16;;;;;;;474.43;305.93;;;;;;;9.46;98.20;100819.53;6147328;23;20040;-60
2022/03/18 10:08:42;;;;;;;471.17;304.57;;;;;;;9.30;99.72;100820.00;6173230;23;20104;-60
2022/03/18 10:11:20;;;;;;;466.90;290.57;;;;;;;9.14;99.80;100800.91;6173253;23;20005;-60
2022/03/18 10:14:07;;;;;;;475.40;302.07;;;;;;;9.22;100.00;100814.75;6173132;23;20031;-60
2022/03/18 10:16:33;;;;;;;470.23;296.43;;;;;;;9.64;99.29;100822.44;6173280;23;20228;-60
2022/03/18 10:19:00;;;;;;;466.17;285.27;;;;;;;9.78;97.57;100815.03;6172845;22;20257;-60
2022/03/18 10:21:27;;;;;;;464.47;293.00;;;;;;;9.88;95.20;100809.25;6173731;22;20290;-61
2022/03/18 10:24:10;;;;;;;476.03;300.20;;;;;;;10.15;95.57;100824.25;6173177;23;20229;-60
2022/03/18 10:26:37;;;;;;;473.83;310.30;;;;;;;10.33;93.40;100822.91;6172687;23;20237;-60
2022/03/18 10:29:04;;;;;;;472.70;305.17;;;;;;;10.42;92.78;100804.25;6173244;23;20236;-60
2022/03/18 10:31:30;;;;;;;474.13;306.07;;;;;;;10.41;92.77;100816.22;6172970;23;20543;-60
2022/03/18 10:37:05;;;;;;;478.17;311.90;;;;;;;10.48;90.31;100804.38;6173645;23;20027;-60
2022/03/18 10:39:40;;;;;;;477.37;338.03;;;;;;;10.69;89.07;100824.38;6171889;23;20771;-61
2022/03/18 10:42:09;;;;;;;483.93;356.47;;;;;;;10.75;89.50;100820.19;6173326;23;20252;-60
2022/03/18 10:44:45;;;;;;;472.93;333.00;;;;;;;10.81;88.85;100816.84;6147189;23;20267;-60
2022/03/18 10:47:30;;;;;;;478.97;347.97;;;;;;;10.90;87.21;100815.28;6173561;23;20235;-60
2022/03/18 10:50:11;;;;;;;473.80;324.52;;;;;;;11.12;88.23;100818.16;6170990;22;20220;-60
2022/03/18 10:52:46;;;;;;;478.70;330.43;;;;;;;11.29;85.26;100819.22;6174246;23;20066;-60
2022/03/18 10:55:22;;;;;;;478.13;332.60;;;;;;;11.37;82.12;100817.66;6173925;23;20225;-60
2022/03/18 10:58:03;;;;;;;476.57;339.57;;;;;;;11.34;81.63;100797.91;6174393;23;20009;-60
2022/03/18 11:00:34;;;;;;;479.13;360.37;;;;;;;11.43;80.89;100810.00;6175362;23;20244;-61
2022/03/18 11:03:01;;;;;;;478.47;353.53;;;;;;;11.63;78.13;100823.94;6173933;23;20323;-59